createdAt,value
2023-03-19T00:00:31.395Z,2.53
2023-03-19T00:02:58.727Z,2.70
2023-03-19T00:05:26.035Z,2.42
2023-03-19T00:07:53.491Z,2.92
2023-03-19T00:10:21.431Z,2.65
2023-03-19T00:12:48.571Z,2.42
2023-03-19T00:15:16.136Z,2.72
2023-03-19T00:17:43.838Z,2.67
2023-03-19T00:20:12.892Z,2.20
2023-03-19T00:22:40.575Z,2.92
2023-03-19T00:25:10.000Z,2.60
2023-03-19T00:27:38.594Z,2.85
2023-03-19T00:30:07.441Z,2.70
2023-03-19T00:32:36.680Z,2.65
2023-03-19T00:35:06.485Z,3.03
2023-03-19T00:37:34.474Z,2.35
2023-03-19T00:40:02.578Z,1.88
2023-03-19T00:42:31.445Z,2.25
2023-03-19T00:44:58.840Z,2.13
2023-03-19T00:47:26.210Z,2.13
2023-03-19T00:49:53.331Z,1.90
2023-03-19T00:52:20.936Z,2.10
2023-03-19T00:54:48.115Z,2.05
2023-03-19T00:57:15.390Z,2.33
2023-03-19T00:59:42.682Z,3.13
2023-03-19T01:02:09.859Z,2.30
2023-03-19T01:04:37.169Z,2.30
2023-03-19T01:07:04.732Z,2.30
2023-03-19T01:09:33.070Z,3.05
2023-03-19T01:12:03.926Z,2.33
2023-03-19T01:14:32.769Z,2.38
2023-03-19T01:17:00.785Z,1.88
2023-03-19T01:19:28.171Z,3.38
2023-03-19T01:21:55.336Z,2.22
2023-03-19T01:24:24.453Z,1.70
2023-03-19T01:26:55.446Z,2.15
2023-03-19T01:29:42.803Z,2.90
2023-03-19T01:32:15.937Z,3.20
2023-03-19T01:35:01.867Z,2.65
2023-03-19T01:37:29.284Z,2.30
2023-03-19T01:39:56.699Z,2.80
2023-03-19T01:42:24.083Z,2.88
2023-03-19T01:45:00.554Z,2.47
2023-03-19T01:47:43.664Z,2.22
2023-03-19T01:52:50.718Z,2.75
2023-03-19T01:55:31.392Z,2.75
2023-03-19T01:58:17.893Z,2.00
2023-03-19T02:01:03.593Z,1.38
2023-03-19T02:03:33.380Z,2.03
2023-03-19T02:06:24.617Z,1.73
2023-03-19T02:08:52.677Z,1.85
2023-03-19T02:11:21.947Z,1.65
2023-03-19T02:13:49.296Z,2.13
2023-03-19T02:16:17.183Z,1.92
2023-03-19T02:18:45.051Z,1.40
2023-03-19T02:21:17.598Z,1.77
2023-03-19T02:24:17.761Z,1.58
2023-03-19T02:26:57.841Z,1.90
2023-03-19T02:29:25.173Z,1.92
2023-03-19T02:31:52.782Z,1.25
2023-03-19T02:34:19.902Z,1.60
2023-03-19T02:36:52.138Z,1.75
2023-03-19T02:39:51.454Z,1.35
2023-03-19T02:42:21.706Z,1.10
2023-03-19T02:44:48.843Z,1.45
2023-03-19T02:47:16.275Z,1.02
2023-03-19T02:49:43.492Z,1.10
2023-03-19T02:52:10.990Z,1.02
2023-03-19T02:54:38.135Z,1.25
2023-03-19T02:57:06.051Z,0.88
2023-03-19T02:59:33.619Z,1.20
2023-03-19T03:02:01.301Z,1.52
2023-03-19T03:04:29.284Z,1.20
2023-03-19T03:06:56.689Z,1.00
2023-03-19T03:09:24.170Z,0.80
2023-03-19T03:11:51.736Z,0.80
2023-03-19T03:14:19.034Z,1.05
2023-03-19T03:16:46.692Z,0.88
2023-03-19T03:19:13.844Z,1.15
2023-03-19T03:21:42.603Z,0.90
2023-03-19T03:24:11.149Z,0.90
2023-03-19T03:26:40.950Z,1.02
2023-03-19T03:29:09.140Z,1.75
2023-03-19T03:31:36.678Z,1.30
2023-03-19T03:34:03.943Z,1.45
2023-03-19T03:36:31.422Z,1.08
2023-03-19T03:38:58.706Z,0.98
2023-03-19T03:41:26.030Z,0.90
2023-03-19T03:43:53.369Z,1.05
2023-03-19T03:46:20.592Z,1.55
2023-03-19T03:48:51.490Z,2.03
2023-03-19T03:51:19.344Z,0.80
2023-03-19T03:53:46.529Z,1.20
2023-03-19T03:56:14.282Z,1.02
2023-03-19T03:58:41.773Z,1.42
2023-03-19T04:01:14.276Z,1.52
2023-03-19T04:03:41.594Z,1.63
2023-03-19T04:06:14.554Z,1.10
2023-03-19T04:08:42.253Z,1.95
2023-03-19T04:11:09.437Z,1.20
2023-03-19T04:13:37.247Z,1.30
2023-03-19T04:16:11.182Z,1.55
2023-03-19T04:18:38.962Z,1.02
2023-03-19T04:21:07.010Z,2.03
2023-03-19T04:23:34.292Z,1.70
2023-03-19T04:26:07.544Z,1.13
2023-03-19T04:28:35.169Z,2.15
2023-03-19T04:31:05.000Z,1.50
2023-03-19T04:33:34.379Z,1.55
2023-03-19T04:36:03.653Z,1.40
2023-03-19T04:38:31.994Z,1.42
2023-03-19T04:40:59.670Z,1.30
2023-03-19T04:43:27.426Z,1.55
2023-03-19T04:45:55.006Z,1.35
2023-03-19T04:48:23.450Z,1.70
2023-03-19T04:50:53.397Z,1.60
2023-03-19T04:53:20.800Z,2.33
2023-03-19T04:55:48.882Z,1.88
2023-03-19T04:58:20.290Z,1.90
2023-03-19T05:00:55.454Z,1.98
2023-03-19T05:03:31.155Z,2.28
2023-03-19T05:05:58.329Z,2.00
2023-03-19T05:08:25.713Z,2.35
2023-03-19T05:10:53.354Z,1.83
2023-03-19T05:13:21.765Z,2.95
2023-03-19T05:15:54.091Z,1.65
2023-03-19T05:18:22.484Z,1.77
2023-03-19T05:20:49.663Z,1.63
2023-03-19T05:23:23.187Z,2.38
2023-03-19T05:26:07.364Z,1.95
2023-03-19T05:28:52.929Z,1.30
2023-03-19T05:31:27.486Z,2.38
2023-03-19T05:33:55.023Z,1.17
2023-03-19T05:36:24.208Z,1.83
2023-03-19T05:39:06.097Z,1.42
2023-03-19T05:41:36.914Z,1.52
2023-03-19T05:44:07.266Z,1.40
2023-03-19T05:46:58.831Z,1.43
2023-03-19T05:49:29.814Z,1.48
2023-03-19T05:51:58.293Z,1.73
2023-03-19T05:54:25.807Z,1.40
2023-03-19T05:57:13.178Z,1.83
2023-03-19T05:59:49.081Z,1.25
2023-03-19T06:02:40.019Z,1.55
2023-03-19T06:05:29.304Z,1.17
2023-03-19T06:08:01.884Z,2.50
2023-03-19T06:10:50.832Z,1.30
2023-03-19T06:13:18.104Z,1.55
2023-03-19T06:15:58.629Z,1.25
2023-03-19T06:18:34.772Z,1.02
2023-03-19T06:23:34.271Z,0.73
2023-03-19T06:26:04.637Z,1.40
2023-03-19T06:28:35.839Z,1.15
2023-03-19T06:31:04.697Z,1.45
2023-03-19T06:33:56.432Z,1.17
2023-03-19T06:36:28.012Z,2.13
2023-03-19T06:38:55.659Z,3.22
2023-03-19T06:41:24.865Z,1.30
2023-03-19T06:43:53.424Z,1.38
2023-03-19T06:46:20.836Z,1.23
2023-03-19T06:48:48.060Z,2.00
2023-03-19T06:51:15.268Z,1.77
2023-03-19T06:53:42.450Z,1.17
2023-03-19T06:56:10.326Z,1.42
2023-03-19T06:58:37.591Z,1.40
2023-03-19T07:01:05.111Z,1.60
2023-03-19T07:03:32.320Z,1.73
2023-03-19T07:05:59.534Z,1.40
2023-03-19T07:08:29.824Z,1.75
2023-03-19T07:10:57.621Z,1.48
2023-03-19T07:13:24.758Z,1.50
2023-03-19T07:15:51.937Z,1.77
2023-03-19T07:18:19.037Z,1.23
2023-03-19T07:20:46.555Z,1.23
2023-03-19T07:23:13.743Z,1.52
2023-03-19T07:25:41.486Z,1.27
2023-03-19T07:28:08.607Z,1.23
2023-03-19T07:30:36.273Z,1.13
2023-03-19T07:33:03.813Z,1.30
2023-03-19T07:35:31.062Z,1.13
2023-03-19T07:37:59.474Z,1.58
2023-03-19T07:40:26.995Z,1.77
2023-03-19T07:42:54.146Z,3.03
2023-03-19T07:45:21.477Z,2.15
2023-03-19T07:47:51.555Z,2.15
2023-03-19T07:50:19.041Z,1.38
2023-03-19T07:52:48.090Z,1.30
2023-03-19T07:55:15.711Z,1.42
2023-03-19T07:57:42.947Z,1.98
2023-03-19T08:00:11.152Z,2.05
2023-03-19T08:02:42.809Z,1.60
2023-03-19T08:05:10.400Z,1.92
2023-03-19T08:07:37.575Z,2.53
2023-03-19T08:10:06.367Z,1.73
2023-03-19T08:12:34.641Z,1.50
2023-03-19T08:15:01.930Z,1.60
2023-03-19T08:17:29.147Z,1.55
2023-03-19T08:19:56.290Z,1.92
2023-03-19T08:22:23.370Z,1.98
2023-03-19T08:24:50.581Z,1.42
2023-03-19T08:27:17.683Z,1.27
2023-03-19T08:29:44.844Z,1.85
2023-03-19T08:32:12.199Z,1.80
2023-03-19T08:34:39.405Z,2.30
2023-03-19T08:37:06.913Z,1.80
2023-03-19T08:39:34.234Z,1.48
2023-03-19T08:42:01.402Z,1.98
2023-03-19T08:44:28.622Z,2.58
2023-03-19T08:46:55.780Z,2.55
2023-03-19T08:49:23.267Z,1.73
2023-03-19T08:51:50.868Z,2.58
2023-03-19T08:54:18.669Z,2.33
2023-03-19T08:56:47.002Z,1.98
2023-03-19T08:59:14.119Z,1.50
2023-03-19T09:01:41.855Z,1.52
2023-03-19T09:04:09.137Z,1.40
2023-03-19T09:06:36.294Z,1.27
2023-03-19T09:09:03.708Z,1.63
2023-03-19T09:11:31.060Z,1.75
2023-03-19T09:13:58.225Z,1.90
2023-03-19T09:16:26.286Z,1.40
2023-03-19T09:18:53.677Z,1.75
2023-03-19T09:21:20.845Z,1.42
2023-03-19T09:23:47.938Z,1.50
2023-03-19T09:26:15.041Z,1.30
2023-03-19T09:28:42.300Z,1.80
2023-03-19T09:31:12.589Z,2.92
2023-03-19T09:33:39.861Z,1.95
2023-03-19T09:36:07.511Z,1.75
2023-03-19T09:38:34.834Z,1.35
2023-03-19T09:41:22.489Z,2.03
2023-03-19T09:44:04.522Z,1.50
2023-03-19T09:46:56.777Z,1.60
2023-03-19T09:49:32.556Z,1.92
2023-03-19T09:52:09.720Z,1.63
2023-03-19T09:54:44.123Z,1.13
2023-03-19T09:57:13.842Z,1.33
2023-03-19T09:59:42.573Z,1.23
2023-03-19T10:02:24.577Z,1.65
2023-03-19T10:05:01.212Z,1.75
2023-03-19T10:07:45.777Z,1.48
2023-03-19T10:10:18.793Z,1.10
2023-03-19T10:12:49.589Z,0.95
2023-03-19T10:15:29.844Z,1.35
2023-03-19T10:18:21.718Z,1.25
2023-03-19T10:21:22.870Z,1.20
2023-03-19T10:24:05.187Z,1.10
2023-03-19T10:26:35.748Z,1.50
2023-03-19T10:29:15.556Z,1.98
2023-03-19T10:31:50.968Z,1.45
2023-03-19T10:34:35.162Z,1.20
2023-03-19T10:37:40.548Z,1.20
2023-03-19T10:40:20.013Z,1.08
2023-03-19T10:43:13.402Z,0.82
2023-03-19T10:45:41.163Z,0.77
2023-03-19T10:48:13.813Z,0.90
2023-03-19T10:50:51.405Z,1.45
2023-03-19T10:53:18.723Z,1.13
2023-03-19T10:55:56.175Z,1.00
2023-03-19T10:58:27.437Z,1.30
2023-03-19T11:01:06.988Z,0.90
2023-03-19T11:03:36.193Z,1.27
2023-03-19T11:06:27.404Z,1.00
2023-03-19T11:09:01.235Z,0.90
2023-03-19T11:11:44.769Z,1.00
2023-03-19T11:14:36.033Z,0.82
2023-03-19T11:17:29.663Z,1.67
2023-03-19T11:19:59.136Z,1.00
2023-03-19T11:22:32.334Z,0.90
2023-03-19T11:25:28.196Z,1.33
2023-03-19T11:28:06.297Z,1.58
2023-03-19T11:31:08.450Z,0.73
2023-03-19T11:33:57.327Z,0.98
2023-03-19T11:36:33.421Z,0.70
2023-03-19T11:39:00.770Z,0.88
2023-03-19T11:42:00.549Z,1.13
2023-03-19T11:44:46.022Z,1.23
2023-03-19T11:47:27.430Z,1.00
2023-03-19T11:50:25.094Z,1.15
2023-03-19T11:53:05.651Z,1.02
2023-03-19T11:55:47.197Z,1.30
2023-03-19T11:58:43.754Z,0.83
2023-03-19T12:01:25.410Z,1.05
2023-03-19T12:04:01.712Z,0.45
2023-03-19T12:06:37.413Z,0.50
2023-03-19T12:09:09.523Z,0.82
2023-03-19T12:11:42.484Z,1.02
2023-03-19T12:14:26.813Z,0.80
2023-03-19T12:16:57.357Z,0.80
2023-03-19T12:19:50.614Z,1.20
2023-03-19T12:22:52.928Z,1.55
2023-03-19T12:25:42.615Z,1.00
2023-03-19T12:28:30.458Z,1.38
2023-03-19T12:31:19.741Z,1.25
2023-03-19T12:34:06.023Z,1.48
2023-03-19T12:36:38.974Z,1.48
2023-03-19T12:39:17.164Z,1.70
2023-03-19T12:41:48.366Z,1.50
2023-03-19T12:44:22.696Z,1.60
2023-03-19T12:46:55.686Z,1.70
2023-03-19T12:49:36.981Z,1.70
2023-03-19T12:52:15.281Z,1.73
2023-03-19T12:54:50.418Z,1.20
2023-03-19T12:57:27.374Z,1.48
2023-03-19T13:00:07.704Z,1.10
2023-03-19T13:02:42.107Z,1.15
2023-03-19T13:05:15.386Z,1.20
2023-03-19T13:08:17.090Z,1.42
2023-03-19T13:10:44.468Z,1.02
2023-03-19T13:13:14.226Z,0.77
2023-03-19T13:15:47.981Z,1.10
2023-03-19T13:18:41.970Z,0.90
2023-03-19T13:21:21.673Z,1.05
2023-03-19T13:24:11.194Z,0.73
2023-03-19T13:26:39.579Z,1.15
2023-03-19T13:29:06.964Z,1.45
2023-03-19T13:31:35.690Z,1.60
2023-03-19T13:34:21.967Z,1.15
2023-03-19T13:37:05.445Z,1.38
2023-03-19T13:39:35.679Z,1.30
2023-03-19T13:42:09.154Z,1.23
2023-03-19T13:44:45.141Z,0.95
2023-03-19T13:47:28.921Z,1.30
2023-03-19T13:50:20.658Z,1.10
2023-03-19T13:52:53.650Z,1.30
2023-03-19T13:55:34.408Z,1.35
2023-03-19T13:58:17.642Z,1.60
2023-03-19T14:00:45.302Z,1.60
2023-03-19T14:03:26.957Z,1.58
2023-03-19T14:06:02.356Z,1.40
2023-03-19T14:08:52.001Z,2.33
2023-03-19T14:11:24.636Z,1.25
2023-03-19T14:13:59.095Z,1.17
2023-03-19T14:16:38.717Z,1.40
2023-03-19T14:19:13.802Z,1.10
2023-03-19T14:21:47.393Z,1.10
2023-03-19T14:25:02.109Z,1.48
2023-03-19T14:27:33.312Z,1.20
2023-03-19T14:30:10.642Z,1.00
2023-03-19T14:32:41.078Z,1.30
2023-03-19T14:35:13.104Z,1.83
2023-03-19T14:37:52.356Z,1.25
2023-03-19T14:40:27.091Z,1.25
2023-03-19T14:43:12.755Z,1.02
2023-03-19T14:45:59.992Z,1.65
2023-03-19T14:48:36.433Z,1.08
2023-03-19T14:51:28.038Z,1.23
2023-03-19T14:54:20.303Z,1.33
2023-03-19T14:56:48.961Z,3.65
2023-03-19T14:59:18.460Z,5.45
2023-03-19T15:01:51.220Z,2.65
2023-03-19T15:04:22.073Z,2.22
2023-03-19T15:06:57.796Z,2.42
2023-03-19T15:09:31.916Z,1.45
2023-03-19T15:12:31.393Z,1.27
2023-03-19T15:15:29.459Z,11.95
2023-03-19T15:18:11.451Z,5.68
2023-03-19T15:20:54.502Z,3.65
2023-03-19T15:23:27.586Z,3.00
2023-03-19T15:26:01.234Z,8.45
2023-03-19T15:28:44.633Z,12.27
2023-03-19T15:31:29.933Z,5.22
2023-03-19T15:34:00.523Z,3.97
2023-03-19T15:36:32.195Z,5.82
2023-03-19T15:39:05.085Z,11.60
2023-03-19T15:41:35.267Z,16.20
2023-03-19T15:44:08.209Z,15.63
2023-03-19T15:46:38.276Z,2.70
2023-03-19T15:49:23.705Z,7.55
2023-03-19T15:51:55.774Z,10.00
2023-03-19T15:54:23.354Z,7.13
2023-03-19T15:56:52.445Z,4.45
2023-03-19T15:59:23.025Z,5.30
2023-03-19T16:01:51.133Z,1.73
2023-03-19T16:04:22.876Z,1.80
2023-03-19T16:06:50.901Z,2.10
2023-03-19T16:09:23.851Z,1.02
2023-03-19T16:11:51.872Z,1.88
2023-03-19T16:14:41.297Z,1.63
2023-03-19T16:17:17.445Z,1.67
2023-03-19T16:19:52.571Z,4.85
2023-03-19T16:22:25.578Z,2.45
2023-03-19T16:24:55.325Z,1.92
2023-03-19T16:27:37.580Z,2.08
2023-03-19T16:30:20.923Z,1.50
2023-03-19T16:33:01.253Z,1.02
2023-03-19T16:35:30.709Z,1.05
2023-03-19T16:38:28.456Z,1.00
2023-03-19T16:41:26.269Z,1.20
2023-03-19T16:43:54.767Z,1.38
2023-03-19T16:46:23.394Z,2.40
2023-03-19T16:48:50.775Z,1.05
2023-03-19T16:51:21.218Z,1.10
2023-03-19T16:53:49.153Z,1.50
2023-03-19T16:56:18.854Z,5.97
2023-03-19T16:58:46.781Z,8.82
2023-03-19T17:01:19.476Z,12.88
2023-03-19T17:03:50.521Z,17.25
2023-03-19T17:06:18.758Z,13.40
2023-03-19T17:08:46.235Z,11.00
2023-03-19T17:11:40.795Z,8.40
2023-03-19T17:14:20.214Z,1.98
2023-03-19T17:16:48.605Z,1.38
2023-03-19T17:19:19.658Z,5.35
2023-03-19T17:21:49.568Z,2.50
2023-03-19T17:24:28.736Z,2.28
2023-03-19T17:26:58.382Z,4.55
2023-03-19T17:29:26.312Z,8.75
2023-03-19T17:31:54.991Z,10.45
2023-03-19T17:34:25.684Z,17.67
2023-03-19T17:36:56.106Z,17.52
2023-03-19T17:39:27.096Z,9.85
2023-03-19T17:41:54.253Z,6.75
2023-03-19T17:44:21.553Z,3.83
2023-03-19T17:46:54.154Z,10.82
2023-03-19T17:49:24.588Z,6.20
2023-03-19T17:51:52.179Z,13.35
2023-03-19T17:54:19.960Z,6.55
2023-03-19T17:56:47.655Z,4.18
2023-03-19T17:59:15.488Z,2.58
2023-03-19T18:01:43.778Z,2.55
2023-03-19T18:04:17.955Z,2.45
2023-03-19T18:06:49.803Z,1.77
2023-03-19T18:09:26.120Z,1.85
2023-03-19T18:11:54.244Z,1.63
2023-03-19T18:14:21.489Z,1.60
2023-03-19T18:16:48.901Z,1.20
2023-03-19T18:19:37.325Z,1.63
2023-03-19T18:22:16.763Z,1.92
2023-03-19T18:24:44.435Z,1.70
2023-03-19T18:27:11.599Z,1.83
2023-03-19T18:29:38.734Z,2.17
2023-03-19T18:32:13.839Z,2.20
2023-03-19T18:34:41.042Z,2.35
2023-03-19T18:37:15.456Z,1.60
2023-03-19T18:39:42.660Z,2.13
2023-03-19T18:42:14.312Z,2.25
2023-03-19T18:44:42.078Z,1.63
2023-03-19T18:47:15.693Z,2.17
2023-03-19T18:49:43.402Z,3.45
2023-03-19T18:52:19.080Z,2.40
2023-03-19T18:54:47.030Z,2.40
2023-03-19T18:57:15.916Z,3.28
2023-03-19T18:59:43.642Z,3.83
2023-03-19T19:02:33.626Z,3.78
2023-03-19T19:05:01.616Z,3.10
2023-03-19T19:07:28.807Z,2.53
2023-03-19T19:09:56.153Z,2.10
2023-03-19T19:12:23.678Z,2.60
2023-03-19T19:14:50.964Z,2.83
2023-03-19T19:17:21.402Z,3.58
2023-03-19T19:19:48.790Z,4.15
2023-03-19T19:22:17.652Z,3.80
2023-03-19T19:24:45.046Z,3.72
2023-03-19T19:27:22.012Z,3.60
2023-03-19T19:29:49.801Z,3.22
2023-03-19T19:32:26.723Z,2.95
2023-03-19T19:34:54.085Z,2.88
2023-03-19T19:37:23.238Z,2.38
2023-03-19T19:39:51.445Z,1.70
2023-03-19T19:42:21.242Z,1.90
2023-03-19T19:44:55.118Z,2.63
2023-03-19T19:47:25.644Z,2.33
2023-03-19T19:49:55.304Z,5.80
2023-03-19T19:52:22.742Z,3.13
2023-03-19T19:54:51.936Z,2.08
2023-03-19T19:57:23.006Z,2.13
2023-03-19T19:59:51.870Z,2.17
2023-03-19T20:02:29.610Z,2.10
2023-03-19T20:04:57.954Z,1.90
2023-03-19T20:07:28.950Z,2.30
2023-03-19T20:09:56.234Z,2.28
2023-03-19T20:12:33.943Z,1.90
2023-03-19T20:15:01.480Z,2.80
2023-03-19T20:17:28.756Z,4.13
2023-03-19T20:19:56.116Z,2.17
2023-03-19T20:22:23.386Z,6.13
2023-03-19T20:24:51.622Z,3.70
2023-03-19T20:27:22.049Z,3.70
2023-03-19T20:29:50.865Z,3.30
2023-03-19T20:32:38.458Z,2.72
2023-03-19T20:35:16.744Z,2.88
2023-03-19T20:37:45.054Z,2.90
2023-03-19T20:40:13.709Z,2.10
2023-03-19T20:42:43.441Z,1.77
2023-03-19T20:45:18.721Z,2.30
2023-03-19T20:47:46.962Z,2.40
2023-03-19T20:50:25.608Z,1.92
2023-03-19T20:52:53.165Z,4.38
2023-03-19T20:55:24.003Z,11.82
2023-03-19T20:57:52.323Z,4.20
2023-03-19T21:00:21.635Z,3.28
2023-03-19T21:02:50.923Z,3.33
2023-03-19T21:05:18.354Z,2.67
2023-03-19T21:07:48.768Z,2.67
2023-03-19T21:10:33.047Z,2.72
2023-03-19T21:13:01.925Z,2.83
2023-03-19T21:15:29.683Z,3.10
2023-03-19T21:17:57.499Z,3.17
2023-03-19T21:20:29.182Z,4.47
2023-03-19T21:23:21.005Z,3.13
2023-03-19T21:25:49.843Z,2.00
2023-03-19T21:28:26.990Z,2.60
2023-03-19T21:30:54.321Z,2.30
2023-03-19T21:33:27.449Z,2.72
2023-03-19T21:35:56.158Z,2.72
2023-03-19T21:38:23.867Z,1.92
2023-03-19T21:40:54.228Z,4.00
2023-03-19T21:43:36.335Z,2.40
2023-03-19T21:46:17.469Z,2.40
2023-03-19T21:48:55.149Z,2.58
2023-03-19T21:51:25.159Z,2.53
2023-03-19T21:53:52.663Z,2.00
2023-03-19T21:56:39.928Z,2.33
2023-03-19T21:59:14.683Z,2.65
2023-03-19T22:01:45.655Z,2.17
2023-03-19T22:04:13.243Z,2.00
2023-03-19T22:06:53.751Z,2.75
2023-03-19T22:09:27.470Z,3.17
2023-03-19T22:11:57.630Z,4.03
2023-03-19T22:14:27.200Z,2.97
2023-03-19T22:16:56.395Z,2.67
2023-03-19T22:19:23.962Z,2.60
2023-03-19T22:21:51.590Z,3.33
2023-03-19T22:24:18.938Z,2.53
2023-03-19T22:26:50.095Z,2.58
2023-03-19T22:29:25.879Z,3.00
2023-03-19T22:31:54.705Z,3.03
2023-03-19T22:34:25.060Z,2.08
2023-03-19T22:36:55.306Z,2.58
2023-03-19T22:39:22.988Z,3.17
2023-03-19T22:41:51.414Z,2.78
2023-03-19T22:44:30.951Z,2.28
2023-03-19T22:47:01.014Z,2.80
2023-03-19T22:49:29.807Z,2.30
2023-03-19T22:51:58.226Z,2.20
2023-03-19T22:54:26.473Z,2.67
2023-03-19T22:56:53.986Z,2.45
2023-03-19T22:59:21.777Z,2.50
2023-03-19T23:01:49.818Z,2.60
2023-03-19T23:04:25.663Z,2.80
2023-03-19T23:06:54.712Z,2.20
2023-03-19T23:09:29.478Z,2.92
2023-03-19T23:11:59.291Z,2.78
2023-03-19T23:14:30.964Z,4.00
2023-03-19T23:17:07.405Z,3.97
2023-03-19T23:19:37.581Z,2.55
2023-03-19T23:22:07.180Z,2.28
2023-03-19T23:24:35.164Z,2.55
2023-03-19T23:27:03.871Z,2.45
2023-03-19T23:29:39.900Z,2.58
2023-03-19T23:32:09.847Z,2.20
2023-03-19T23:34:55.893Z,2.10
2023-03-19T23:37:25.376Z,2.40
2023-03-19T23:39:53.730Z,2.80
2023-03-19T23:42:29.736Z,2.83
2023-03-19T23:45:04.020Z,2.50
2023-03-19T23:47:31.723Z,2.60
2023-03-19T23:49:58.954Z,2.95
2023-03-19T23:52:26.634Z,2.97
2023-03-19T23:54:54.131Z,3.00
2023-03-19T23:57:23.061Z,2.03
2023-03-19T23:59:52.352Z,3.13
